Main page
METAR-TAF:

METAR-TAF

Airports :

Kuwait International Airport

Kuwait City, Kuwait

latitude: 29-13N, longitude: 047-59E, elevation: 55 m

Current weather observation

The report was made 18 minutes ago, at 18:00 UTC
Calm wind
Temperature 25°C
Humidity 24%
Pressure 1016 hPa
Visibility 10 km or more
no clouds below 1500 m and no cumulonimbus

METAR: OKBK 041800Z 00000KT CAVOK 25/03 Q1016 NOSIG

Time: 21:18 (18:18 UTC)

Forecast

The report was made 1 hour and 33 minutes ago, at 16:45 UTC
Forecast valid from 04 at 18 UTC to 05 at 24 UTC
Wind 8 kt from the North/Northwest with gusts up to 18 kt
Visibility: 7000 m
Temporary
from 04 at 18 UTC to 05 at 03 UTC
Wind 3 kt from variable directions
Visibility: 4000 m
haze

TAF: OKBK 041645Z 0418/0524 33008G18KT 7000 NSC TEMPO 0418/0503 VRB03KT 4000 HZ

Weather observations and forecasts of more than 4000 airports (METAR and TAF reports).

The available stations are represented by yellow and red dots on the map.

Hover mouse over dot to see the name of the station.

Then click to see weather observations and forecasts.

To change the map : click on the green buttons with a black cross to zoom in, on the green button with a dash to zoom out, or on the green arrows for adjacent maps.


METAR-TAF: